createdAt,value
2024-02-02T00:02:15.558Z,11.77
2024-02-02T00:04:44.012Z,12.23
2024-02-02T00:07:11.573Z,13.10
2024-02-02T00:09:39.410Z,14.33
2024-02-02T00:12:12.040Z,13.17
2024-02-02T00:14:41.321Z,13.77
2024-02-02T00:17:08.902Z,13.70
2024-02-02T00:19:36.806Z,13.50
2024-02-02T00:22:04.459Z,13.33
2024-02-02T00:24:32.038Z,14.07
2024-02-02T00:26:59.975Z,14.40
2024-02-02T00:29:27.664Z,15.27
2024-02-02T00:31:56.974Z,15.23
2024-02-02T00:34:24.593Z,14.47
2024-02-02T00:36:52.579Z,15.57
2024-02-02T00:39:20.207Z,17.13
2024-02-02T00:41:48.860Z,16.20
2024-02-02T00:44:16.471Z,13.53
2024-02-02T00:46:43.983Z,14.77
2024-02-02T00:49:13.132Z,15.20
2024-02-02T00:51:40.795Z,16.43
2024-02-02T00:54:08.727Z,15.27
2024-02-02T00:56:36.349Z,14.03
2024-02-02T00:59:04.623Z,15.63
2024-02-02T01:01:32.179Z,14.50
2024-02-02T01:03:59.981Z,13.73
2024-02-02T01:06:28.953Z,12.80
2024-02-02T01:08:56.852Z,16.40
2024-02-02T01:11:25.626Z,13.80
2024-02-02T01:13:53.352Z,15.73
2024-02-02T01:16:21.300Z,15.40
2024-02-02T01:18:49.116Z,16.67
2024-02-02T01:21:17.511Z,14.60
2024-02-02T01:23:46.414Z,15.30
2024-02-02T01:26:14.473Z,15.50
2024-02-02T01:28:42.099Z,14.87
2024-02-02T01:31:09.910Z,16.00
2024-02-02T01:33:37.592Z,15.37
2024-02-02T01:36:05.576Z,15.70
2024-02-02T01:38:33.426Z,14.73
2024-02-02T01:41:02.311Z,15.13
2024-02-02T01:43:30.559Z,14.20
2024-02-02T01:45:58.115Z,14.57
2024-02-02T01:48:27.057Z,16.53
2024-02-02T01:50:54.997Z,15.33
2024-02-02T01:53:23.097Z,16.40
2024-02-02T01:55:50.629Z,14.80
2024-02-02T01:58:19.705Z,15.67
2024-02-02T02:00:47.540Z,16.30
2024-02-02T02:03:15.517Z,16.70
2024-02-02T02:05:43.338Z,17.73
2024-02-02T02:08:10.972Z,18.37
2024-02-02T02:10:38.948Z,16.27
2024-02-02T02:13:07.113Z,15.97
2024-02-02T02:15:36.695Z,15.70
2024-02-02T02:18:04.470Z,15.90
2024-02-02T02:20:32.503Z,14.90
2024-02-02T02:23:01.894Z,16.10
2024-02-02T02:25:30.412Z,15.53
2024-02-02T02:27:58.207Z,15.87
2024-02-02T02:30:25.821Z,17.33
2024-02-02T02:32:53.717Z,15.40
2024-02-02T02:35:21.335Z,15.40
2024-02-02T02:37:49.272Z,17.10
2024-02-02T02:40:18.562Z,16.80
2024-02-02T02:42:46.252Z,16.73
2024-02-02T02:45:14.499Z,16.13
2024-02-02T02:47:43.087Z,16.77
2024-02-02T02:50:11.499Z,16.00
2024-02-02T02:52:39.144Z,17.07
2024-02-02T02:55:07.094Z,14.77
2024-02-02T02:57:36.184Z,16.00
2024-02-02T03:00:03.837Z,14.40
2024-02-02T03:02:31.764Z,18.07
2024-02-02T03:04:59.458Z,17.27
2024-02-02T03:07:26.996Z,21.10
2024-02-02T03:09:54.705Z,19.43
2024-02-02T03:12:22.463Z,20.37
2024-02-02T03:14:51.905Z,19.00
2024-02-02T03:17:19.558Z,19.20
2024-02-02T03:19:47.134Z,17.37
2024-02-02T03:22:15.112Z,18.53
2024-02-02T03:24:42.698Z,19.93
2024-02-02T03:27:10.439Z,19.27
2024-02-02T03:29:37.950Z,19.83
2024-02-02T03:32:07.262Z,19.50
2024-02-02T03:34:35.246Z,20.27
2024-02-02T03:37:03.578Z,18.33
2024-02-02T03:39:31.313Z,20.53
2024-02-02T03:42:01.253Z,19.07
2024-02-02T03:44:28.833Z,21.73
2024-02-02T03:46:57.061Z,21.20
2024-02-02T03:49:26.038Z,20.77
2024-02-02T03:51:54.179Z,18.80
2024-02-02T03:54:21.811Z,20.37
2024-02-02T03:56:49.648Z,19.17
2024-02-02T03:59:17.764Z,20.43
2024-02-02T04:01:45.299Z,21.37
2024-02-02T04:04:13.254Z,20.57
2024-02-02T04:06:42.875Z,21.43
2024-02-02T04:09:10.900Z,23.27
2024-02-02T04:11:38.729Z,21.43
2024-02-02T04:14:06.873Z,20.27
2024-02-02T04:16:34.704Z,22.60
2024-02-02T04:19:02.305Z,20.07
2024-02-02T04:21:30.934Z,22.33
2024-02-02T04:23:59.937Z,22.90
2024-02-02T04:26:27.476Z,21.97
2024-02-02T04:28:55.307Z,20.37
2024-02-02T04:31:22.835Z,23.87
2024-02-02T04:33:50.996Z,23.17
2024-02-02T04:36:18.995Z,23.60
2024-02-02T04:38:46.565Z,22.97
2024-02-02T04:41:16.180Z,22.90
2024-02-02T04:43:44.245Z,22.70
2024-02-02T04:46:11.758Z,22.00
2024-02-02T04:48:39.755Z,23.80
2024-02-02T04:51:07.446Z,22.27
2024-02-02T04:53:35.001Z,23.37
2024-02-02T04:56:02.833Z,24.20
2024-02-02T04:58:32.212Z,23.73
2024-02-02T05:00:59.823Z,24.63
2024-02-02T05:03:28.000Z,23.43
2024-02-02T05:05:55.720Z,24.13
2024-02-02T05:08:23.446Z,22.83
2024-02-02T05:10:51.230Z,23.80
2024-02-02T05:13:18.815Z,26.30
2024-02-02T05:15:48.028Z,26.33
2024-02-02T05:18:15.921Z,23.70
2024-02-02T05:20:44.007Z,26.40
2024-02-02T05:23:11.962Z,25.07
2024-02-02T05:25:40.164Z,26.53
2024-02-02T05:28:07.773Z,26.17
2024-02-02T05:30:35.531Z,23.07
2024-02-02T05:33:04.923Z,23.80
2024-02-02T05:35:33.106Z,25.23
2024-02-02T05:38:00.771Z,28.40
2024-02-02T05:40:32.611Z,27.23
2024-02-02T05:43:01.277Z,26.33
2024-02-02T05:45:29.813Z,25.40
2024-02-02T05:47:57.403Z,24.87
2024-02-02T05:50:26.580Z,27.90
2024-02-02T05:52:54.427Z,27.90
2024-02-02T05:55:22.030Z,27.07
2024-02-02T05:57:49.550Z,28.67
2024-02-02T06:00:19.403Z,28.20
2024-02-02T06:02:48.025Z,29.93
2024-02-02T06:05:15.673Z,30.43
2024-02-02T06:07:44.832Z,27.57
2024-02-02T06:10:12.360Z,29.17
2024-02-02T06:12:39.952Z,28.33
2024-02-02T06:15:09.108Z,27.83
2024-02-02T06:17:37.126Z,25.37
2024-02-02T06:20:05.563Z,25.77
2024-02-02T06:22:33.380Z,23.97
2024-02-02T06:25:02.262Z,24.57
2024-02-02T06:27:32.125Z,25.93
2024-02-02T06:30:01.308Z,26.33
2024-02-02T06:32:29.105Z,25.33
2024-02-02T06:34:57.806Z,24.53
2024-02-02T06:37:26.031Z,26.73
2024-02-02T06:39:54.109Z,25.47
2024-02-02T06:42:23.232Z,23.83
2024-02-02T06:44:52.550Z,21.20
2024-02-02T06:47:20.160Z,22.37
2024-02-02T06:49:47.733Z,24.27
2024-02-02T06:52:15.796Z,24.10
2024-02-02T06:54:43.369Z,22.77
2024-02-02T06:57:11.400Z,23.83
2024-02-02T06:59:40.401Z,22.77
2024-02-02T07:02:18.433Z,24.33
2024-02-02T07:04:46.012Z,24.23
2024-02-02T07:07:13.840Z,23.90
2024-02-02T07:09:40.686Z,25.23
2024-02-02T07:12:10.704Z,26.27
2024-02-02T07:15:00.878Z,26.60
2024-02-02T07:17:35.278Z,27.80
2024-02-02T07:20:05.276Z,28.03
2024-02-02T07:22:34.789Z,31.17
2024-02-02T07:25:02.736Z,30.17
2024-02-02T07:27:48.450Z,28.30
2024-02-02T07:30:29.016Z,26.43
2024-02-02T07:32:58.221Z,28.43
2024-02-02T07:35:29.587Z,26.87
2024-02-02T07:37:57.399Z,27.30
2024-02-02T07:40:54.873Z,25.60
2024-02-02T07:43:22.658Z,25.80
2024-02-02T07:45:50.200Z,25.10
2024-02-02T07:48:19.563Z,29.30
2024-02-02T07:50:47.277Z,25.73
2024-02-02T07:53:15.101Z,28.03
2024-02-02T07:55:42.631Z,30.70
2024-02-02T07:58:10.443Z,30.83
2024-02-02T08:00:38.119Z,29.20
2024-02-02T08:03:06.512Z,29.80
2024-02-02T08:05:37.797Z,26.67
2024-02-02T08:08:05.492Z,26.97
2024-02-02T08:10:33.338Z,27.87
2024-02-02T08:13:01.004Z,28.60
2024-02-02T08:15:28.754Z,25.73
2024-02-02T08:17:56.757Z,28.77
2024-02-02T08:20:24.373Z,28.43
2024-02-02T08:22:53.375Z,29.13
2024-02-02T08:25:20.935Z,30.90
2024-02-02T08:27:48.553Z,28.63
2024-02-02T08:30:16.310Z,32.37
2024-02-02T08:32:46.505Z,28.70
2024-02-02T08:35:14.074Z,29.50
2024-02-02T08:37:43.493Z,28.90
2024-02-02T08:40:21.059Z,28.83
2024-02-02T08:42:48.926Z,27.93
2024-02-02T08:45:32.042Z,29.67
2024-02-02T08:47:59.933Z,29.10
2024-02-02T08:50:27.507Z,30.30
2024-02-02T08:52:58.324Z,30.23
2024-02-02T08:55:41.104Z,32.40
2024-02-02T08:58:09.983Z,27.97
2024-02-02T09:00:39.668Z,29.00
2024-02-02T09:03:10.248Z,31.10
2024-02-02T09:05:51.915Z,31.30
2024-02-02T09:08:34.610Z,28.40
2024-02-02T09:11:16.011Z,30.67
2024-02-02T09:13:45.312Z,29.53
2024-02-02T09:16:14.378Z,29.70
2024-02-02T09:18:42.676Z,30.13
2024-02-02T09:21:10.432Z,32.17
2024-02-02T09:23:40.930Z,30.10
2024-02-02T09:26:10.739Z,31.23
2024-02-02T09:28:41.432Z,32.27
2024-02-02T09:31:12.079Z,31.80
2024-02-02T09:33:46.356Z,31.20
2024-02-02T09:36:14.401Z,32.70
2024-02-02T09:38:42.177Z,30.70
2024-02-02T09:41:28.540Z,30.27
2024-02-02T09:43:58.813Z,29.47
2024-02-02T09:46:29.307Z,30.23
2024-02-02T09:49:01.101Z,34.27
2024-02-02T09:51:36.201Z,30.90
2024-02-02T09:54:04.987Z,31.03
2024-02-02T09:56:41.754Z,34.00
2024-02-02T09:59:10.757Z,32.30
2024-02-02T10:01:48.905Z,34.43
2024-02-02T10:04:22.743Z,36.40
2024-02-02T10:06:54.590Z,39.77
2024-02-02T10:09:37.333Z,38.30
2024-02-02T10:12:19.101Z,38.93
2024-02-02T10:15:14.208Z,41.43
2024-02-02T10:17:48.367Z,38.47
2024-02-02T10:20:21.772Z,43.47
2024-02-02T10:22:56.090Z,44.83
2024-02-02T10:25:31.555Z,43.50
2024-02-02T10:28:12.365Z,43.77
2024-02-02T10:30:45.281Z,43.87
2024-02-02T10:33:28.720Z,46.07
2024-02-02T10:36:02.759Z,49.00
2024-02-02T10:38:32.869Z,42.80
2024-02-02T10:41:05.960Z,48.33
2024-02-02T10:43:41.171Z,45.43
2024-02-02T10:46:16.495Z,45.23
2024-02-02T10:48:59.296Z,34.93
2024-02-02T10:51:30.285Z,31.90
2024-02-02T10:54:02.382Z,32.47
2024-02-02T10:56:31.839Z,32.20
2024-02-02T10:59:09.257Z,33.53
2024-02-02T11:01:41.185Z,28.83
2024-02-02T11:04:12.222Z,30.87
2024-02-02T11:06:45.003Z,28.60
2024-02-02T11:09:20.412Z,26.83
2024-02-02T11:11:49.515Z,27.40
2024-02-02T11:14:28.856Z,28.13
2024-02-02T11:17:00.162Z,31.57
2024-02-02T11:19:36.337Z,29.53
2024-02-02T11:22:20.619Z,29.33
2024-02-02T11:24:54.083Z,28.93
2024-02-02T11:27:22.341Z,31.90
2024-02-02T11:29:56.299Z,34.83
2024-02-02T11:32:28.125Z,32.27
2024-02-02T11:34:57.774Z,32.93
2024-02-02T11:37:30.901Z,32.83
2024-02-02T11:40:00.672Z,32.23
2024-02-02T11:42:29.680Z,29.27
2024-02-02T11:45:00.652Z,30.67
2024-02-02T11:47:29.923Z,32.60
2024-02-02T11:50:06.143Z,32.50
2024-02-02T11:52:37.683Z,31.88
2024-02-02T11:55:09.213Z,33.88
2024-02-02T11:57:41.263Z,29.40
2024-02-02T12:00:13.712Z,34.20
2024-02-02T12:02:58.727Z,32.90
2024-02-02T12:05:28.595Z,34.67
2024-02-02T12:08:06.204Z,35.35
2024-02-02T12:10:36.093Z,32.90
2024-02-02T12:13:04.890Z,34.67
2024-02-02T12:15:34.147Z,35.47
2024-02-02T12:18:04.180Z,36.13
2024-02-02T12:20:32.703Z,32.97
2024-02-02T12:23:00.368Z,34.65
2024-02-02T12:25:29.303Z,36.67
2024-02-02T12:27:56.979Z,35.00
2024-02-02T12:30:24.942Z,37.38
2024-02-02T12:32:55.430Z,35.78
2024-02-02T12:35:23.839Z,37.13
2024-02-02T12:37:52.342Z,38.70
2024-02-02T12:40:21.180Z,37.33
2024-02-02T12:42:49.517Z,43.27
2024-02-02T12:45:17.450Z,39.65
2024-02-02T12:47:45.663Z,42.00
2024-02-02T12:50:18.274Z,40.75
2024-02-02T12:52:46.491Z,42.05
2024-02-02T12:55:14.540Z,37.15
2024-02-02T12:57:43.247Z,39.60
2024-02-02T13:00:15.247Z,39.42
2024-02-02T13:02:44.152Z,41.30
2024-02-02T13:05:13.990Z,39.58
2024-02-02T13:07:42.244Z,43.85
2024-02-02T13:10:11.358Z,40.83
2024-02-02T13:12:45.803Z,45.25
2024-02-02T13:15:14.124Z,51.08
2024-02-02T13:17:41.955Z,50.75
2024-02-02T13:20:15.715Z,53.35
2024-02-02T13:22:47.403Z,49.97
2024-02-02T13:25:20.585Z,51.97
2024-02-02T13:27:49.838Z,47.70
2024-02-02T13:30:23.662Z,50.55
2024-02-02T13:32:53.471Z,47.67
2024-02-02T13:35:24.298Z,48.38
2024-02-02T13:37:52.987Z,46.25
2024-02-02T13:40:23.890Z,44.53
2024-02-02T13:42:52.261Z,42.47
2024-02-02T13:45:20.740Z,50.28
2024-02-02T13:47:55.808Z,46.20
2024-02-02T13:50:31.435Z,44.50
2024-02-02T13:52:59.936Z,45.33
2024-02-02T13:55:30.135Z,42.38
2024-02-02T13:57:57.973Z,40.65
2024-02-02T14:00:26.210Z,37.17
2024-02-02T14:02:53.762Z,39.10
2024-02-02T14:05:21.509Z,41.10
2024-02-02T14:07:57.611Z,37.33
2024-02-02T14:10:28.771Z,41.58
2024-02-02T14:12:56.462Z,38.90
2024-02-02T14:15:24.052Z,40.45
2024-02-02T14:17:52.932Z,37.75
2024-02-02T14:20:26.751Z,38.75
2024-02-02T14:22:54.277Z,33.55
2024-02-02T14:25:29.933Z,38.88
2024-02-02T14:27:57.477Z,38.70
2024-02-02T14:30:25.260Z,41.20
2024-02-02T14:33:04.887Z,37.40
2024-02-02T14:35:40.829Z,37.63
2024-02-02T14:38:09.282Z,36.25
2024-02-02T14:40:38.189Z,35.30
2024-02-02T14:43:05.744Z,32.60
2024-02-02T14:45:34.510Z,33.63
2024-02-02T14:48:02.176Z,33.85
2024-02-02T14:50:29.807Z,31.67
2024-02-02T14:52:57.356Z,36.33
2024-02-02T14:55:25.312Z,35.97
2024-02-02T14:57:58.152Z,34.13
2024-02-02T15:00:32.122Z,34.33
2024-02-02T15:03:00.745Z,34.63
2024-02-02T15:05:28.646Z,34.45
2024-02-02T15:07:56.390Z,34.05
2024-02-02T15:10:24.735Z,34.85
2024-02-02T15:12:52.379Z,33.70
2024-02-02T15:15:21.632Z,36.05
2024-02-02T15:17:49.451Z,35.58
2024-02-02T15:20:16.993Z,38.85
2024-02-02T15:22:44.863Z,39.10
2024-02-02T15:25:12.435Z,34.67
2024-02-02T15:27:40.476Z,37.70
2024-02-02T15:30:08.786Z,39.67
2024-02-02T15:32:38.198Z,36.60
2024-02-02T15:35:06.182Z,38.00
2024-02-02T15:37:33.831Z,34.63
2024-02-02T15:40:02.075Z,37.35
2024-02-02T15:42:32.191Z,35.63
2024-02-02T15:45:05.476Z,34.53
2024-02-02T15:47:33.896Z,35.03
2024-02-02T15:50:03.906Z,36.17
2024-02-02T15:52:31.605Z,37.30
2024-02-02T15:55:04.195Z,39.42
2024-02-02T15:57:32.187Z,38.65
2024-02-02T15:59:59.877Z,38.35
2024-02-02T16:02:27.412Z,38.13
2024-02-02T16:04:57.264Z,37.60
2024-02-02T16:07:27.310Z,37.83
2024-02-02T16:09:57.541Z,36.10
2024-02-02T16:12:25.305Z,37.53
2024-02-02T16:14:53.172Z,39.10
2024-02-02T16:17:20.775Z,40.40
2024-02-02T16:19:48.622Z,40.07
2024-02-02T16:22:16.260Z,36.67
2024-02-02T16:24:45.608Z,38.90
2024-02-02T16:27:13.234Z,42.67
2024-02-02T16:29:40.997Z,42.63
2024-02-02T16:32:09.285Z,44.00
2024-02-02T16:34:37.267Z,43.90
2024-02-02T16:37:04.997Z,44.80
2024-02-02T16:39:34.171Z,45.42
2024-02-02T16:42:03.301Z,46.72
2024-02-02T16:44:30.962Z,45.92
2024-02-02T16:47:01.016Z,46.20
2024-02-02T16:49:28.868Z,46.27
2024-02-02T16:51:56.760Z,43.13
2024-02-02T16:54:24.334Z,42.97
2024-02-02T16:56:52.120Z,44.15
2024-02-02T16:59:20.992Z,44.13
2024-02-02T17:01:48.630Z,40.70
2024-02-02T17:04:16.348Z,37.77
2024-02-02T17:06:44.392Z,37.00
2024-02-02T17:09:12.287Z,36.67
2024-02-02T17:11:39.956Z,38.93
2024-02-02T17:14:07.464Z,34.03
2024-02-02T17:16:36.432Z,35.37
2024-02-02T17:19:04.315Z,32.90
2024-02-02T17:21:32.095Z,35.73
2024-02-02T17:23:59.880Z,30.77
2024-02-02T17:26:28.273Z,31.60
2024-02-02T17:29:00.456Z,35.00
2024-02-02T17:31:36.052Z,32.17
2024-02-02T17:34:03.821Z,35.23
2024-02-02T17:36:31.496Z,33.47
2024-02-02T17:38:59.270Z,30.37
2024-02-02T17:41:26.798Z,32.43
2024-02-02T17:43:54.368Z,30.03
2024-02-02T17:46:21.906Z,33.30
2024-02-02T17:48:51.177Z,31.03
2024-02-02T17:51:19.775Z,31.50
2024-02-02T17:53:47.442Z,33.07
2024-02-02T17:56:15.300Z,33.07
2024-02-02T17:58:43.120Z,32.27
2024-02-02T18:01:12.348Z,31.80
2024-02-02T18:03:39.985Z,30.53
2024-02-02T18:06:09.794Z,32.70
2024-02-02T18:08:38.117Z,32.03
2024-02-02T18:11:08.650Z,32.50
2024-02-02T18:13:36.273Z,31.53
2024-02-02T18:16:04.912Z,32.60
2024-02-02T18:18:32.858Z,30.53
2024-02-02T18:21:01.113Z,31.57
2024-02-02T18:23:33.142Z,28.43
2024-02-02T18:26:01.174Z,30.17
2024-02-02T18:28:28.711Z,30.20
2024-02-02T18:30:56.585Z,28.83
2024-02-02T18:33:24.262Z,29.03
2024-02-02T18:35:52.401Z,30.23
2024-02-02T18:38:19.942Z,31.10
2024-02-02T18:40:51.409Z,29.77
2024-02-02T18:43:19.406Z,27.97
2024-02-02T18:45:47.462Z,29.60
2024-02-02T18:48:15.864Z,29.03
2024-02-02T18:50:44.194Z,32.80
2024-02-02T18:53:11.729Z,31.63
2024-02-02T18:55:39.919Z,30.27
2024-02-02T18:58:08.831Z,33.73
2024-02-02T19:00:36.826Z,31.07
2024-02-02T19:03:05.002Z,33.10
2024-02-02T19:05:33.527Z,33.10
2024-02-02T19:08:01.144Z,28.97
2024-02-02T19:10:28.893Z,31.03
2024-02-02T19:12:56.441Z,32.40
2024-02-02T19:15:26.005Z,37.33
2024-02-02T19:17:53.577Z,37.03
2024-02-02T19:20:22.075Z,38.63
2024-02-02T19:22:52.399Z,39.87
2024-02-02T19:25:19.974Z,36.60
2024-02-02T19:27:48.444Z,36.00
2024-02-02T19:30:16.194Z,38.80
2024-02-02T19:32:45.543Z,40.30
2024-02-02T19:35:13.122Z,40.87
2024-02-02T19:37:41.091Z,36.53
2024-02-02T19:40:09.650Z,39.30
2024-02-02T19:42:37.777Z,40.20
2024-02-02T19:45:05.497Z,43.00
2024-02-02T19:47:33.238Z,41.97
2024-02-02T19:50:02.378Z,39.87
2024-02-02T19:52:30.348Z,45.30
2024-02-02T19:54:57.895Z,39.13
2024-02-02T19:57:25.498Z,41.93
2024-02-02T19:59:53.120Z,42.37
2024-02-02T20:02:26.189Z,40.60
2024-02-02T20:04:53.793Z,45.73
2024-02-02T20:07:23.153Z,44.97
2024-02-02T20:09:51.126Z,43.93
2024-02-02T20:12:18.838Z,44.43
2024-02-02T20:14:46.606Z,47.30
2024-02-02T20:17:14.424Z,50.40
2024-02-02T20:19:42.741Z,46.00
2024-02-02T20:22:10.545Z,47.20
2024-02-02T20:24:42.733Z,46.90
2024-02-02T20:27:10.451Z,45.43
2024-02-02T20:29:39.684Z,43.27
2024-02-02T20:32:07.815Z,44.70
2024-02-02T20:34:35.750Z,46.70
2024-02-02T20:37:03.370Z,43.93
2024-02-02T20:39:36.597Z,47.53
2024-02-02T20:42:05.891Z,47.07
2024-02-02T20:44:34.255Z,44.93
2024-02-02T20:47:03.678Z,47.37
2024-02-02T20:49:31.588Z,48.83
2024-02-02T20:51:59.342Z,48.60
2024-02-02T20:54:27.314Z,51.97
2024-02-02T20:56:54.923Z,49.83
2024-02-02T20:59:24.260Z,50.63
2024-02-02T21:01:51.801Z,46.17
2024-02-02T21:04:19.737Z,48.87
2024-02-02T21:06:47.376Z,49.23
2024-02-02T21:09:15.260Z,49.53
2024-02-02T21:11:42.933Z,51.97
2024-02-02T21:14:10.784Z,47.87
2024-02-02T21:16:40.162Z,46.57
2024-02-02T21:19:09.684Z,48.70
2024-02-02T21:21:37.841Z,50.90
2024-02-02T21:24:06.108Z,49.47
2024-02-02T21:26:33.702Z,45.47
2024-02-02T21:29:02.692Z,50.33
2024-02-02T21:31:30.434Z,44.83
2024-02-02T21:33:59.669Z,45.90
2024-02-02T21:36:27.330Z,47.43
2024-02-02T21:38:55.123Z,50.77
2024-02-02T21:41:23.780Z,49.97
2024-02-02T21:43:51.397Z,56.93
2024-02-02T21:46:22.413Z,51.53
2024-02-02T21:48:50.384Z,54.13
2024-02-02T21:51:19.623Z,54.40
2024-02-02T21:53:47.176Z,49.50
2024-02-02T21:56:14.858Z,53.93
2024-02-02T21:58:42.397Z,48.63
2024-02-02T22:01:10.542Z,52.93
2024-02-02T22:03:38.250Z,56.27
2024-02-02T22:06:07.346Z,55.67
2024-02-02T22:08:36.348Z,53.67
2024-02-02T22:11:04.601Z,53.43
2024-02-02T22:13:32.162Z,55.93
2024-02-02T22:15:59.730Z,56.20
2024-02-02T22:18:27.676Z,53.07
2024-02-02T22:20:55.524Z,55.37
2024-02-02T22:23:23.043Z,54.23
2024-02-02T22:25:51.946Z,54.20
2024-02-02T22:28:19.506Z,51.47
2024-02-02T22:30:47.289Z,52.73
2024-02-02T22:33:15.023Z,53.30
2024-02-02T22:35:43.018Z,50.80
2024-02-02T22:38:10.624Z,51.43
2024-02-02T22:40:38.249Z,53.00
2024-02-02T22:43:07.247Z,51.23
2024-02-02T22:45:34.768Z,48.80
2024-02-02T22:48:02.614Z,51.63
2024-02-02T22:50:30.712Z,51.30
2024-02-02T22:52:58.528Z,56.77
2024-02-02T22:55:26.085Z,51.30
2024-02-02T22:57:53.908Z,49.73
2024-02-02T23:00:23.943Z,53.63
2024-02-02T23:02:51.774Z,54.60
2024-02-02T23:05:19.336Z,55.53
2024-02-02T23:07:47.129Z,52.87
2024-02-02T23:10:14.889Z,52.10
2024-02-02T23:12:42.804Z,54.20
2024-02-02T23:15:10.527Z,55.43
2024-02-02T23:17:39.745Z,52.27
2024-02-02T23:20:09.609Z,56.43
2024-02-02T23:22:37.896Z,50.60
2024-02-02T23:25:05.672Z,54.07
2024-02-02T23:27:36.308Z,54.23
2024-02-02T23:30:05.285Z,51.53
2024-02-02T23:32:32.855Z,51.87
2024-02-02T23:35:02.767Z,55.10
2024-02-02T23:37:30.344Z,57.30
2024-02-02T23:39:57.917Z,55.63
2024-02-02T23:42:26.147Z,54.00
2024-02-02T23:44:53.698Z,54.67
2024-02-02T23:47:21.298Z,53.53
2024-02-02T23:49:49.105Z,54.73
2024-02-02T23:52:18.431Z,55.20
2024-02-02T23:54:46.036Z,53.53
2024-02-02T23:57:13.995Z,57.57
2024-02-02T23:59:41.563Z,54.23
